createdAt,value
2023-06-30T00:01:38.863Z,33.80
2023-06-30T00:04:41.120Z,33.90
2023-06-30T00:07:46.688Z,33.70
2023-06-30T00:10:48.967Z,33.90
2023-06-30T00:13:56.355Z,33.90
2023-06-30T00:16:58.650Z,33.70
2023-06-30T00:20:00.971Z,33.80
2023-06-30T00:23:03.514Z,34.00
2023-06-30T00:26:05.688Z,33.80
2023-06-30T00:29:08.857Z,33.50
2023-06-30T00:32:10.828Z,34.00
2023-06-30T00:35:13.063Z,33.30
2023-06-30T00:38:15.149Z,33.40
2023-06-30T00:41:17.462Z,33.20
2023-06-30T00:44:19.443Z,33.30
2023-06-30T00:47:22.004Z,33.10
2023-06-30T00:50:24.129Z,33.20
2023-06-30T00:53:26.530Z,33.40
2023-06-30T00:56:28.553Z,33.20
2023-06-30T00:59:30.764Z,33.10
2023-06-30T01:02:35.489Z,33.20
2023-06-30T01:05:44.661Z,32.80
2023-06-30T01:09:08.244Z,33.10
2023-06-30T01:12:10.883Z,33.00
2023-06-30T01:15:15.001Z,32.90
2023-06-30T01:18:21.036Z,32.90
2023-06-30T01:21:23.984Z,33.00
2023-06-30T01:24:28.450Z,33.10
2023-06-30T01:27:31.257Z,33.30
2023-06-30T01:30:34.516Z,33.40
2023-06-30T01:33:40.493Z,33.50
2023-06-30T01:36:42.746Z,33.40
2023-06-30T01:39:44.698Z,33.30
2023-06-30T01:42:48.600Z,33.60
2023-06-30T01:45:51.115Z,33.70
2023-06-30T01:48:53.583Z,33.70
2023-06-30T01:51:55.639Z,33.60
2023-06-30T01:54:58.044Z,33.60
2023-06-30T01:58:00.040Z,33.60
2023-06-30T02:01:02.427Z,33.50
2023-06-30T02:04:04.730Z,33.50
2023-06-30T02:07:07.042Z,33.60
2023-06-30T02:10:09.652Z,33.70
2023-06-30T02:13:12.132Z,34.00
2023-06-30T02:16:15.752Z,33.90
2023-06-30T02:19:18.594Z,34.00
2023-06-30T02:22:20.553Z,33.80
2023-06-30T02:25:22.909Z,33.50
2023-06-30T02:28:26.646Z,33.60
2023-06-30T02:31:29.058Z,33.90
2023-06-30T02:34:30.993Z,33.80
2023-06-30T02:37:33.894Z,33.80
2023-06-30T02:40:37.529Z,33.70
2023-06-30T02:43:39.820Z,34.00
2023-06-30T02:46:41.798Z,34.10
2023-06-30T02:49:44.117Z,34.40
2023-06-30T02:52:46.081Z,34.10
2023-06-30T02:55:48.693Z,34.00
2023-06-30T02:58:51.616Z,33.70
2023-06-30T03:01:54.016Z,33.70
2023-06-30T03:04:57.146Z,33.80
2023-06-30T03:07:59.562Z,33.70
2023-06-30T03:11:01.721Z,33.70
2023-06-30T03:14:04.060Z,33.50
2023-06-30T03:17:06.154Z,33.50
2023-06-30T03:20:11.569Z,33.60
2023-06-30T03:23:14.904Z,33.50
2023-06-30T03:26:17.210Z,33.70
2023-06-30T03:29:19.113Z,33.90
2023-06-30T03:32:21.381Z,33.90
2023-06-30T03:35:23.417Z,34.00
2023-06-30T03:38:25.898Z,33.90
2023-06-30T03:41:28.021Z,33.70
2023-06-30T03:44:30.366Z,33.60
2023-06-30T03:47:32.565Z,33.60
2023-06-30T03:50:34.855Z,33.60
2023-06-30T03:53:36.857Z,33.70
2023-06-30T03:56:39.157Z,33.60
2023-06-30T03:59:41.131Z,33.80
2023-06-30T04:02:43.453Z,33.70
2023-06-30T04:05:45.814Z,34.00
2023-06-30T04:08:48.170Z,33.90
2023-06-30T04:11:51.346Z,34.00
2023-06-30T04:14:53.563Z,34.00
2023-06-30T04:17:55.625Z,33.80
2023-06-30T04:20:57.800Z,34.00
2023-06-30T04:23:59.889Z,34.10
2023-06-30T04:27:02.151Z,33.80
2023-06-30T04:30:04.786Z,33.70
2023-06-30T04:33:07.198Z,33.60
2023-06-30T04:36:09.689Z,33.80
2023-06-30T04:39:12.151Z,34.40
2023-06-30T04:42:15.679Z,34.40
2023-06-30T04:45:19.278Z,34.20
2023-06-30T04:48:21.468Z,34.00
2023-06-30T04:51:23.706Z,33.40
2023-06-30T04:54:25.687Z,34.10
2023-06-30T04:57:28.125Z,34.20
2023-06-30T05:00:30.281Z,34.20
2023-06-30T05:03:32.965Z,32.70
2023-06-30T05:06:34.971Z,32.60
2023-06-30T05:09:37.310Z,32.80
2023-06-30T05:12:39.328Z,33.10
2023-06-30T05:15:41.643Z,32.80
2023-06-30T05:18:43.748Z,32.90
2023-06-30T05:21:46.009Z,32.50
2023-06-30T05:24:48.779Z,31.80
2023-06-30T05:27:51.038Z,31.90
2023-06-30T05:30:53.095Z,31.30
2023-06-30T05:33:55.370Z,31.10
2023-06-30T05:36:57.492Z,30.90
2023-06-30T05:39:59.774Z,30.80
2023-06-30T05:43:01.784Z,29.80
2023-06-30T05:46:04.098Z,30.00
2023-06-30T05:49:07.061Z,29.70
2023-06-30T05:52:09.549Z,28.90
2023-06-30T05:55:11.492Z,28.30
2023-06-30T05:58:13.779Z,28.20
2023-06-30T06:01:15.808Z,27.80
2023-06-30T06:04:19.571Z,28.60
2023-06-30T06:07:21.915Z,28.80
2023-06-30T06:10:24.234Z,28.70
2023-06-30T06:13:37.036Z,29.50
2023-06-30T06:16:39.365Z,29.10
2023-06-30T06:19:41.383Z,28.60
2023-06-30T06:22:43.666Z,28.10
2023-06-30T06:25:45.813Z,28.30
2023-06-30T06:28:48.137Z,28.30
2023-06-30T06:31:51.106Z,28.20
2023-06-30T06:34:53.612Z,28.70
2023-06-30T06:37:55.651Z,29.00
2023-06-30T06:40:57.936Z,28.80
2023-06-30T06:43:59.906Z,28.80
2023-06-30T06:47:39.812Z,29.00
2023-06-30T06:50:41.786Z,28.90
2023-06-30T06:53:44.030Z,29.30
2023-06-30T06:56:48.347Z,28.80
2023-06-30T06:59:50.599Z,28.10
2023-06-30T07:02:53.622Z,28.30
2023-06-30T07:05:57.911Z,28.60
2023-06-30T07:09:00.257Z,28.60
2023-06-30T07:12:02.544Z,28.30
2023-06-30T07:15:05.059Z,28.40
2023-06-30T07:18:07.637Z,28.20
2023-06-30T07:21:09.724Z,28.40
2023-06-30T07:24:12.089Z,28.50
2023-06-30T07:27:14.114Z,28.40
2023-06-30T07:30:17.508Z,27.90
2023-06-30T07:33:19.598Z,27.90
2023-06-30T07:36:21.898Z,27.50
2023-06-30T07:39:23.959Z,27.10
2023-06-30T07:42:26.242Z,27.30
2023-06-30T07:45:28.234Z,27.40
2023-06-30T07:48:30.578Z,26.80
2023-06-30T07:51:33.080Z,26.70
2023-06-30T07:54:35.299Z,26.90
2023-06-30T07:57:37.278Z,26.70
2023-06-30T08:00:39.554Z,26.70
2023-06-30T08:03:41.970Z,27.00
2023-06-30T08:06:44.371Z,26.80
2023-06-30T08:09:46.327Z,26.90
2023-06-30T08:12:48.718Z,26.90
2023-06-30T08:15:51.630Z,26.60
2023-06-30T08:18:54.535Z,26.80
2023-06-30T08:21:56.654Z,26.90
2023-06-30T08:24:59.201Z,26.50
2023-06-30T08:28:01.330Z,26.60
2023-06-30T08:31:04.056Z,26.80
2023-06-30T08:34:06.709Z,26.30
2023-06-30T08:37:09.201Z,27.60
2023-06-30T08:40:11.894Z,27.20
2023-06-30T08:43:15.416Z,27.20
2023-06-30T08:46:23.516Z,26.80
2023-06-30T08:49:26.948Z,26.80
2023-06-30T08:52:30.018Z,25.70
2023-06-30T08:55:32.744Z,26.40
2023-06-30T08:58:35.090Z,26.90
2023-06-30T09:01:39.526Z,26.80
2023-06-30T09:04:42.543Z,26.90
2023-06-30T09:07:55.043Z,26.30
2023-06-30T09:10:57.689Z,26.90
2023-06-30T09:14:05.054Z,26.50
2023-06-30T09:17:07.625Z,27.40
2023-06-30T09:20:10.980Z,27.10
2023-06-30T09:23:15.271Z,27.00
2023-06-30T09:26:18.372Z,27.00
2023-06-30T09:29:24.741Z,27.50
2023-06-30T09:32:31.866Z,27.30
2023-06-30T09:35:41.286Z,27.80
2023-06-30T09:38:43.637Z,27.70
2023-06-30T09:41:47.390Z,28.00
2023-06-30T09:44:53.404Z,27.60
2023-06-30T09:47:55.681Z,27.60
2023-06-30T09:50:58.586Z,27.70
2023-06-30T09:54:02.117Z,28.40
2023-06-30T09:57:06.455Z,27.70
2023-06-30T10:00:15.779Z,27.60
2023-06-30T10:03:25.689Z,27.10
2023-06-30T10:06:29.624Z,27.70
2023-06-30T10:09:34.436Z,27.50
2023-06-30T10:12:38.344Z,27.80
2023-06-30T10:15:41.023Z,27.40
2023-06-30T10:18:47.945Z,28.10
2023-06-30T10:21:51.011Z,28.10
2023-06-30T10:24:54.456Z,27.40
2023-06-30T10:27:57.265Z,26.90
2023-06-30T10:30:59.286Z,27.50
2023-06-30T10:34:02.421Z,27.40
2023-06-30T10:37:04.980Z,28.10
2023-06-30T10:40:30.758Z,27.10
2023-06-30T10:44:04.855Z,27.90
2023-06-30T10:47:07.543Z,27.10
2023-06-30T10:50:14.628Z,26.60
2023-06-30T10:53:20.461Z,26.30
2023-06-30T10:56:25.393Z,26.50
2023-06-30T10:59:40.321Z,27.50
2023-06-30T11:03:06.954Z,27.30
2023-06-30T11:06:22.397Z,27.40
2023-06-30T11:09:24.369Z,27.50
2023-06-30T11:12:28.838Z,27.60
2023-06-30T11:15:39.420Z,27.70
2023-06-30T11:18:42.302Z,27.70
2023-06-30T11:22:05.759Z,27.70
2023-06-30T11:25:12.272Z,27.90
2023-06-30T11:28:14.544Z,27.70
2023-06-30T11:31:17.549Z,27.70
2023-06-30T11:34:20.219Z,29.40
2023-06-30T11:37:23.167Z,29.50
2023-06-30T11:40:25.555Z,30.30
2023-06-30T11:43:33.471Z,29.30
2023-06-30T11:46:37.517Z,29.20
2023-06-30T11:49:40.248Z,29.00
2023-06-30T11:52:42.469Z,29.40
2023-06-30T11:55:45.613Z,29.20
2023-06-30T11:58:51.801Z,27.70
2023-06-30T12:01:54.575Z,27.30
2023-06-30T12:04:56.639Z,26.40
2023-06-30T12:07:59.217Z,26.20
2023-06-30T12:11:04.834Z,27.80
2023-06-30T12:14:16.047Z,26.50
2023-06-30T12:17:19.304Z,26.60
2023-06-30T12:20:38.990Z,25.40
2023-06-30T12:23:45.149Z,25.40
2023-06-30T12:26:49.743Z,25.20
2023-06-30T12:29:51.748Z,25.10
2023-06-30T12:32:59.494Z,24.40
2023-06-30T12:36:07.304Z,25.00
2023-06-30T12:39:09.690Z,24.60
2023-06-30T12:42:12.656Z,24.70
2023-06-30T12:45:17.292Z,25.80
2023-06-30T12:48:19.247Z,26.00
2023-06-30T12:51:21.548Z,25.80
2023-06-30T12:54:23.914Z,26.70
2023-06-30T12:57:26.134Z,26.10
2023-06-30T13:00:28.213Z,26.10
2023-06-30T13:03:30.633Z,25.70
2023-06-30T13:06:32.722Z,26.00
2023-06-30T13:09:35.098Z,25.80
2023-06-30T13:12:41.395Z,26.20
2023-06-30T13:15:43.922Z,26.00
2023-06-30T13:18:47.186Z,25.70
2023-06-30T13:21:50.735Z,25.70
2023-06-30T13:24:53.831Z,26.00
2023-06-30T13:27:56.339Z,25.80
2023-06-30T13:30:58.354Z,26.20
2023-06-30T13:34:00.694Z,25.60
2023-06-30T13:37:02.687Z,25.70
2023-06-30T13:40:05.971Z,25.90
2023-06-30T13:43:08.114Z,26.00
2023-06-30T13:46:10.449Z,26.40
2023-06-30T13:49:12.514Z,26.20
2023-06-30T13:52:14.980Z,26.60
2023-06-30T13:55:17.032Z,26.10
2023-06-30T13:58:19.252Z,26.20
2023-06-30T14:01:21.369Z,26.20
2023-06-30T14:04:23.663Z,26.20
2023-06-30T14:07:25.700Z,25.70
2023-06-30T14:10:28.827Z,25.80
2023-06-30T14:13:30.897Z,25.80
2023-06-30T14:16:34.180Z,25.60
2023-06-30T14:19:36.650Z,25.40
2023-06-30T14:22:39.242Z,25.70
2023-06-30T14:25:41.745Z,25.60
2023-06-30T14:28:44.239Z,25.60
2023-06-30T14:31:46.276Z,26.30
2023-06-30T14:34:48.804Z,26.30
2023-06-30T14:37:50.757Z,26.60
2023-06-30T14:40:53.013Z,25.80
2023-06-30T14:43:55.030Z,26.10
2023-06-30T14:46:57.411Z,26.60
2023-06-30T14:49:59.438Z,26.50
2023-06-30T14:53:02.013Z,26.50
2023-06-30T14:56:04.164Z,26.70
2023-06-30T14:59:06.480Z,26.90
2023-06-30T15:02:08.550Z,27.10
2023-06-30T15:05:11.043Z,27.20
2023-06-30T15:08:13.383Z,27.20
2023-06-30T15:11:15.964Z,27.30
2023-06-30T15:14:17.978Z,27.40
2023-06-30T15:17:20.362Z,27.20
2023-06-30T15:20:22.407Z,27.10
2023-06-30T15:23:24.752Z,28.10
2023-06-30T15:26:26.720Z,27.50
2023-06-30T15:29:28.977Z,28.80
2023-06-30T15:32:31.056Z,29.30
2023-06-30T15:35:33.347Z,30.70
2023-06-30T15:38:35.339Z,30.00
2023-06-30T15:41:37.873Z,29.60
2023-06-30T15:44:39.820Z,29.60
2023-06-30T15:47:42.288Z,29.60
2023-06-30T15:50:44.575Z,29.60
2023-06-30T15:53:47.490Z,29.40
2023-06-30T15:56:49.474Z,29.30
2023-06-30T15:59:51.734Z,28.80
2023-06-30T16:02:55.158Z,28.60
2023-06-30T16:05:57.629Z,28.90
2023-06-30T16:08:59.707Z,29.00
2023-06-30T16:12:01.968Z,28.90
2023-06-30T16:15:05.421Z,28.80
2023-06-30T16:18:07.807Z,29.20
2023-06-30T16:21:09.910Z,29.20
2023-06-30T16:24:12.237Z,29.60
2023-06-30T16:27:14.366Z,29.80
2023-06-30T16:30:24.856Z,31.20
2023-06-30T16:33:28.215Z,32.00
2023-06-30T16:36:30.731Z,32.00
2023-06-30T16:39:32.773Z,31.20
2023-06-30T16:42:34.998Z,31.10
2023-06-30T16:45:37.063Z,31.50
2023-06-30T16:48:39.453Z,31.30
2023-06-30T16:51:42.723Z,32.20
2023-06-30T16:54:45.037Z,33.00
2023-06-30T16:57:48.514Z,34.00
2023-06-30T17:00:50.964Z,35.60
2023-06-30T17:03:52.932Z,36.30
2023-06-30T17:06:55.155Z,36.00
2023-06-30T17:09:57.119Z,35.80
2023-06-30T17:13:00.066Z,35.70
2023-06-30T17:16:02.175Z,35.80
2023-06-30T17:19:04.465Z,35.40
2023-06-30T17:22:06.855Z,34.70
2023-06-30T17:25:09.201Z,34.20
2023-06-30T17:28:11.222Z,34.00
2023-06-30T17:31:13.542Z,34.90
2023-06-30T17:34:15.789Z,34.10
2023-06-30T17:37:18.021Z,34.20
2023-06-30T17:40:21.221Z,33.40
2023-06-30T17:43:23.674Z,33.40
2023-06-30T17:46:25.748Z,33.70
2023-06-30T17:49:30.215Z,33.70
2023-06-30T17:52:32.262Z,33.50
2023-06-30T17:55:34.452Z,34.00
2023-06-30T17:58:36.430Z,33.90
2023-06-30T18:01:39.097Z,33.80
2023-06-30T18:04:41.244Z,34.40
2023-06-30T18:07:43.769Z,34.30
2023-06-30T18:10:49.047Z,35.30
2023-06-30T18:13:56.613Z,35.70
2023-06-30T18:17:00.037Z,36.70
2023-06-30T18:20:02.427Z,36.30
2023-06-30T18:23:04.408Z,36.50
2023-06-30T18:26:07.008Z,37.00
2023-06-30T18:29:09.326Z,37.70
2023-06-30T18:32:11.823Z,36.60
2023-06-30T18:35:14.112Z,36.70
2023-06-30T18:38:16.449Z,37.00
2023-06-30T18:41:18.534Z,37.50
2023-06-30T18:44:20.762Z,36.40
2023-06-30T18:47:22.919Z,37.00
2023-06-30T18:50:25.245Z,36.80
2023-06-30T18:53:27.235Z,36.20
2023-06-30T18:56:30.039Z,36.10
2023-06-30T18:59:32.270Z,36.10
2023-06-30T19:02:34.749Z,35.50
2023-06-30T19:05:37.292Z,36.30
2023-06-30T19:08:39.530Z,35.80
2023-06-30T19:11:41.569Z,36.50
2023-06-30T19:14:43.905Z,36.70
2023-06-30T19:17:45.881Z,36.90
2023-06-30T19:20:48.480Z,37.10
2023-06-30T19:23:50.454Z,37.20
2023-06-30T19:26:52.948Z,37.40
2023-06-30T19:29:55.238Z,37.70
2023-06-30T19:32:57.505Z,38.60
2023-06-30T19:35:59.596Z,37.90
2023-06-30T19:39:01.901Z,38.00
2023-06-30T19:42:04.962Z,38.00
2023-06-30T19:45:07.510Z,38.10
2023-06-30T19:48:09.709Z,38.40
2023-06-30T19:51:12.086Z,38.80
2023-06-30T19:54:14.209Z,38.50
2023-06-30T19:57:16.895Z,38.40
2023-06-30T20:00:19.017Z,39.00
2023-06-30T20:03:21.723Z,39.00
2023-06-30T20:06:24.022Z,39.20
2023-06-30T20:09:26.347Z,39.30
2023-06-30T20:12:28.534Z,38.80
2023-06-30T20:15:32.192Z,38.30
2023-06-30T20:18:34.253Z,38.50
2023-06-30T20:21:36.832Z,38.10
2023-06-30T20:24:38.995Z,37.70
2023-06-30T20:27:43.643Z,37.80
2023-06-30T20:30:48.150Z,38.00
2023-06-30T20:33:50.742Z,38.10
2023-06-30T20:36:52.885Z,38.30
2023-06-30T20:39:57.160Z,38.20
2023-06-30T20:42:59.572Z,38.20
2023-06-30T20:46:01.908Z,38.00
2023-06-30T20:49:03.940Z,37.60
2023-06-30T20:52:08.878Z,38.00
2023-06-30T20:55:10.862Z,38.10
2023-06-30T20:58:13.133Z,37.90
2023-06-30T21:01:15.184Z,37.50
2023-06-30T21:04:18.720Z,37.30
2023-06-30T21:07:20.891Z,37.60
2023-06-30T21:10:23.197Z,38.00
2023-06-30T21:13:25.217Z,38.00
2023-06-30T21:16:27.633Z,37.70
2023-06-30T21:19:29.783Z,37.80
2023-06-30T21:22:32.333Z,38.10
2023-06-30T21:25:34.287Z,38.10
2023-06-30T21:28:36.494Z,37.70
2023-06-30T21:31:38.509Z,37.60
2023-06-30T21:34:40.885Z,37.50
2023-06-30T21:37:42.962Z,37.30
2023-06-30T21:40:45.564Z,37.10
2023-06-30T21:43:47.811Z,37.10
2023-06-30T21:46:50.087Z,37.30
2023-06-30T21:49:52.875Z,37.30
2023-06-30T21:52:55.303Z,37.20
2023-06-30T21:55:57.285Z,37.10
2023-06-30T21:58:59.771Z,36.90
2023-06-30T22:02:01.813Z,36.90
2023-06-30T22:05:04.450Z,36.90
2023-06-30T22:08:06.503Z,37.00
2023-06-30T22:11:08.771Z,37.30
2023-06-30T22:14:13.430Z,37.00
2023-06-30T22:17:15.841Z,37.50
2023-06-30T22:20:18.505Z,37.50
2023-06-30T22:23:21.345Z,37.50
2023-06-30T22:26:23.423Z,37.80
2023-06-30T22:29:25.756Z,37.60
2023-06-30T22:32:30.153Z,37.30
2023-06-30T22:35:32.464Z,37.00
2023-06-30T22:38:34.467Z,37.10
2023-06-30T22:41:36.748Z,37.50
2023-06-30T22:44:38.752Z,38.00
2023-06-30T22:47:41.133Z,38.00
2023-06-30T22:50:43.241Z,38.50
2023-06-30T22:53:45.489Z,38.90
2023-06-30T22:56:47.497Z,38.60
2023-06-30T22:59:52.411Z,38.20
2023-06-30T23:02:54.844Z,38.00
2023-06-30T23:05:57.227Z,37.80
2023-06-30T23:08:59.222Z,37.50
2023-06-30T23:12:01.933Z,37.10
2023-06-30T23:15:04.382Z,37.20
2023-06-30T23:18:06.848Z,37.00
2023-06-30T23:21:12.086Z,37.10
2023-06-30T23:24:14.535Z,37.00
2023-06-30T23:27:17.845Z,37.00
2023-06-30T23:30:21.350Z,37.20
2023-06-30T23:33:23.896Z,37.10
2023-06-30T23:36:26.621Z,37.00
2023-06-30T23:39:28.593Z,37.00
2023-06-30T23:42:30.875Z,37.50
2023-06-30T23:45:32.873Z,37.90
2023-06-30T23:48:35.144Z,38.10
2023-06-30T23:51:37.152Z,38.40
2023-06-30T23:54:39.460Z,38.40
2023-06-30T23:57:41.406Z,38.70
